Time,TemperatureF,DewpointF,PressureIn,WindDirection,WindDirectionDegrees,WindSpeedMPH,WindSpeedGustMPH,Humidity,HourlyPrecipIn,Conditions,Clouds,dailyrainin,SoftwareType,DateUTC
2013-09-06 00:00:00,59.5,37.0,0.00,NE,35,0.0,4.0,43,0.00,,,0.00,Weather View 32 v70,2013-09-06 04:00:00,
2013-09-06 00:15:00,59.2,36.6,0.00,NNE,22,0.0,4.0,43,0.00,,,0.00,Weather View 32 v70,2013-09-06 04:15:00,
2013-09-06 00:24:00,59.2,36.6,0.00,NNE,22,0.0,4.0,43,0.00,,,0.00,Weather View 32 v70,2013-09-06 04:24:00,
2013-09-06 00:30:00,58.8,37.5,0.00,NNE,22,0.0,4.0,45,0.00,,,0.00,Weather View 32 v70,2013-09-06 04:30:00,
2013-09-06 00:45:00,57.7,37.1,0.00,NNE,22,0.0,4.0,46,0.00,,,0.00,Weather View 32 v70,2013-09-06 04:45:00,
2013-09-06 01:00:00,57.0,37.5,0.00,NNE,22,0.0,3.0,48,0.00,,,0.00,Weather View 32 v70,2013-09-06 05:00:00,
2013-09-06 01:15:00,56.7,37.2,0.00,NNE,22,0.0,0.0,48,0.00,,,0.00,Weather View 32 v70,2013-09-06 05:15:00,
2013-09-06 01:24:00,56.7,37.2,0.00,NNE,22,0.0,0.0,48,0.00,,,0.00,Weather View 32 v70,2013-09-06 05:24:00,
2013-09-06 01:30:00,56.5,37.5,0.00,NNW,335,0.0,3.0,49,0.00,,,0.00,Weather View 32 v70,2013-09-06 05:30:00,
2013-09-06 01:45:00,56.7,36.6,0.00,North,353,0.0,3.0,47,0.00,,,0.00,Weather View 32 v70,2013-09-06 05:45:00,
2013-09-06 02:00:00,56.7,36.1,0.00,NNE,30,0.0,3.0,46,0.00,,,0.00,Weather View 32 v70,2013-09-06 06:00:00,
2013-09-06 02:15:00,56.7,35.5,0.00,North,357,3.0,3.0,45,0.00,,,0.00,Weather View 32 v70,2013-09-06 06:15:00,
2013-09-06 02:30:00,56.8,33.9,0.00,North,353,4.0,5.0,42,0.00,,,0.00,Weather View 32 v70,2013-09-06 06:30:00,
2013-09-06 02:45:00,56.7,33.2,0.00,North,357,3.0,5.0,41,0.00,,,0.00,Weather View 32 v70,2013-09-06 06:45:00,
2013-09-06 03:00:00,56.5,33.6,0.00,North,357,3.0,5.0,42,0.00,,,0.00,Weather View 32 v70,2013-09-06 07:00:00,
2013-09-06 03:15:00,56.3,32.9,0.00,North,350,0.0,5.0,41,0.00,,,0.00,Weather View 32 v70,2013-09-06 07:15:00,
2013-09-06 03:30:00,56.1,33.9,0.00,North,0,3.0,4.0,43,0.00,,,0.00,Weather View 32 v70,2013-09-06 07:30:00,
2013-09-06 03:45:00,55.8,33.0,0.00,NNW,338,5.0,8.0,42,0.00,,,0.00,Weather View 32 v70,2013-09-06 07:45:00,
2013-09-06 04:00:00,55.8,32.4,0.00,North,8,6.0,8.0,41,0.00,,,0.00,Weather View 32 v70,2013-09-06 08:00:00,
2013-09-06 04:15:00,55.8,31.8,0.00,NNE,17,3.0,8.0,40,0.00,,,0.00,Weather View 32 v70,2013-09-06 08:15:00,
2013-09-06 04:30:00,55.6,31.6,0.00,NNE,12,3.0,8.0,40,0.00,,,0.00,Weather View 32 v70,2013-09-06 08:30:00,
2013-09-06 04:45:00,55.4,32.0,0.00,NNE,12,3.0,8.0,41,0.00,,,0.00,Weather View 32 v70,2013-09-06 08:45:00,
2013-09-06 05:00:00,55.2,33.1,0.00,North,357,2.0,8.0,43,0.00,,,0.00,Weather View 32 v70,2013-09-06 09:00:00,
2013-09-06 05:15:00,54.5,34.1,0.00,North,9,0.0,6.0,46,0.00,,,0.00,Weather View 32 v70,2013-09-06 09:15:00,
2013-09-06 05:30:00,53.8,33.4,0.00,NNW,339,0.0,6.0,46,0.00,,,0.00,Weather View 32 v70,2013-09-06 09:30:00,
2013-09-06 05:45:00,53.2,33.5,0.00,NNW,339,0.0,6.0,47,0.00,,,0.00,Weather View 32 v70,2013-09-06 09:45:00,
2013-09-06 06:00:00,53.1,33.3,0.00,North,353,2.0,4.0,47,0.00,,,0.00,Weather View 32 v70,2013-09-06 10:00:00,
2013-09-06 06:15:00,53.2,32.4,0.00,North,353,5.0,6.0,45,0.00,,,0.00,Weather View 32 v70,2013-09-06 10:15:00,
2013-09-06 06:30:00,54.0,32.5,0.00,NNE,28,0.0,6.0,44,0.00,,,0.00,Weather View 32 v70,2013-09-06 10:30:00,
2013-09-06 06:45:00,54.1,33.2,0.00,NNE,17,0.0,6.0,45,0.00,,,0.00,Weather View 32 v70,2013-09-06 10:45:00,
2013-09-06 07:00:00,54.0,34.1,0.00,NNE,17,0.0,6.0,47,0.00,,,0.00,Weather View 32 v70,2013-09-06 11:00:00,
2013-09-06 07:15:00,53.8,34.5,0.00,North,357,0.0,6.0,48,0.00,,,0.00,Weather View 32 v70,2013-09-06 11:15:00,
2013-09-06 07:30:00,54.0,35.2,0.00,NNW,342,0.0,0.0,49,0.00,,,0.00,Weather View 32 v70,2013-09-06 11:30:00,
2013-09-06 07:45:00,54.7,36.4,0.00,NNW,345,0.0,0.0,50,0.00,,,0.00,Weather View 32 v70,2013-09-06 11:45:00,
2013-09-06 08:00:00,55.8,35.8,0.00,North,10,0.0,4.0,47,0.00,,,0.00,Weather View 32 v70,2013-09-06 12:00:00,
2013-09-06 08:15:00,56.7,33.2,0.00,North,357,2.0,4.0,41,0.00,,,0.00,Weather View 32 v70,2013-09-06 12:15:00,
2013-09-06 08:29:00,57.4,33.2,0.00,North,353,0.0,4.0,40,0.00,,,0.00,Weather View 32 v70,2013-09-06 12:29:00,
2013-09-06 08:45:00,58.3,33.4,0.00,NE,35,4.0,4.0,39,0.00,,,0.00,Weather View 32 v70,2013-09-06 12:45:00,
2013-09-06 08:59:00,59.9,32.1,0.00,NW,322,5.0,7.0,35,0.00,,,0.00,Weather View 32 v70,2013-09-06 12:59:00,
2013-09-06 09:15:00,60.6,33.5,0.00,North,353,3.0,7.0,36,0.00,,,0.00,Weather View 32 v70,2013-09-06 13:15:00,
2013-09-06 09:30:00,61.7,33.0,0.00,North,0,4.0,7.0,34,0.00,,,0.00,Weather View 32 v70,2013-09-06 13:30:00,
2013-09-06 09:45:00,62.1,33.3,0.00,North,0,3.0,7.0,34,0.00,,,0.00,Weather View 32 v70,2013-09-06 13:45:00,
2013-09-06 10:00:00,63.9,34.9,0.00,NNE,13,3.0,7.0,34,0.00,,,0.00,Weather View 32 v70,2013-09-06 14:00:00,
2013-09-06 10:15:00,65.8,31.7,0.00,NNW,338,3.0,6.0,28,0.00,,,0.00,Weather View 32 v70,2013-09-06 14:15:00,
2013-09-06 10:30:00,66.0,31.0,0.00,WNW,298,0.0,6.0,27,0.00,,,0.00,Weather View 32 v70,2013-09-06 14:30:00,
2013-09-06 10:45:00,66.9,29.9,0.00,North,0,0.0,6.0,25,0.00,,,0.00,Weather View 32 v70,2013-09-06 14:45:00,
2013-09-06 11:00:00,68.0,29.8,0.00,North,357,4.0,6.0,24,0.00,,,0.00,Weather View 32 v70,2013-09-06 15:00:00,
2013-09-06 11:15:00,68.7,31.4,0.00,NE,41,0.0,6.0,25,0.00,,,0.00,Weather View 32 v70,2013-09-06 15:15:00,
2013-09-06 11:30:00,68.4,30.1,0.00,North,357,3.0,6.0,24,0.00,,,0.00,Weather View 32 v70,2013-09-06 15:30:00,
2013-09-06 11:44:00,67.6,30.5,0.00,NNE,26,3.0,6.0,25,0.00,,,0.00,Weather View 32 v70,2013-09-06 15:44:00,
2013-09-06 11:59:00,67.1,30.0,0.00,NW,320,0.0,6.0,25,0.00,,,0.00,Weather View 32 v70,2013-09-06 15:59:00,
2013-09-06 12:15:00,66.9,29.9,0.00,West,274,4.0,6.0,25,0.00,,,0.00,Weather View 32 v70,2013-09-06 16:15:00,
2013-09-06 12:30:00,68.0,28.7,0.00,NNW,344,3.0,6.0,23,0.00,,,0.00,Weather View 32 v70,2013-09-06 16:30:00,
2013-09-06 12:45:00,67.6,29.5,0.00,NW,310,0.0,6.0,24,0.00,,,0.00,Weather View 32 v70,2013-09-06 16:45:00,
2013-09-06 13:00:00,68.4,29.0,0.00,North,5,3.0,6.0,23,0.00,,,0.00,Weather View 32 v70,2013-09-06 17:00:00,
2013-09-06 13:15:00,70.2,30.5,0.00,North,1,0.0,6.0,23,0.00,,,0.00,Weather View 32 v70,2013-09-06 17:15:00,
2013-09-06 13:30:00,69.8,30.2,0.00,North,6,2.0,6.0,23,0.00,,,0.00,Weather View 32 v70,2013-09-06 17:30:00,
2013-09-06 13:44:00,69.3,28.7,0.00,ESE,107,4.0,5.0,22,0.00,,,0.00,Weather View 32 v70,2013-09-06 17:44:00,
2013-09-06 14:00:00,70.5,30.8,0.00,NNW,345,0.0,5.0,23,0.00,,,0.00,Weather View 32 v70,2013-09-06 18:00:00,
2013-09-06 14:15:00,69.8,29.1,0.00,WNW,300,4.0,6.0,22,0.00,,,0.00,Weather View 32 v70,2013-09-06 18:15:00,
2013-09-06 14:30:00,70.5,29.8,0.00,WSW,244,0.0,6.0,22,0.00,,,0.00,Weather View 32 v70,2013-09-06 18:30:00,
2013-09-06 14:44:00,71.1,30.2,0.00,North,353,4.0,6.0,22,0.00,,,0.00,Weather View 32 v70,2013-09-06 18:44:00,
2013-09-06 14:59:00,71.1,30.2,0.00,SW,224,3.0,6.0,22,0.00,,,0.00,Weather View 32 v70,2013-09-06 18:59:00,
2013-09-06 15:15:00,71.4,30.5,0.00,NW,312,0.0,5.0,22,0.00,,,0.00,Weather View 32 v70,2013-09-06 19:15:00,
2013-09-06 15:30:00,71.1,30.2,0.00,WSW,246,0.0,6.0,22,0.00,,,0.00,Weather View 32 v70,2013-09-06 19:30:00,
2013-09-06 15:45:00,70.3,29.6,0.00,NW,307,3.0,6.0,22,0.00,,,0.00,Weather View 32 v70,2013-09-06 19:45:00,
2013-09-06 16:00:00,70.3,30.7,0.00,North,349,4.0,6.0,23,0.00,,,0.00,Weather View 32 v70,2013-09-06 20:00:00,
2013-09-06 16:14:00,70.9,31.1,0.00,North,350,3.0,6.0,23,0.00,,,0.00,Weather View 32 v70,2013-09-06 20:14:00,
2013-09-06 16:30:00,71.6,30.6,0.00,NNW,339,0.0,6.0,22,0.00,,,0.00,Weather View 32 v70,2013-09-06 20:30:00,
2013-09-06 16:45:00,71.8,31.9,0.00,North,0,0.0,6.0,23,0.00,,,0.00,Weather View 32 v70,2013-09-06 20:45:00,
2013-09-06 16:59:00,72.9,32.8,0.00,North,353,2.0,4.0,23,0.00,,,0.00,Weather View 32 v70,2013-09-06 20:59:00,
2013-09-06 17:15:00,73.6,32.3,0.00,North,357,2.0,5.0,22,0.00,,,0.00,Weather View 32 v70,2013-09-06 21:15:00,
2013-09-06 17:30:00,75.0,32.3,0.00,North,2,0.0,5.0,21,0.00,,,0.00,Weather View 32 v70,2013-09-06 21:30:00,
2013-09-06 17:44:00,75.6,32.8,0.00,North,357,3.0,6.0,21,0.00,,,0.00,Weather View 32 v70,2013-09-06 21:44:00,
2013-09-06 18:00:00,76.6,32.5,0.00,NNE,27,3.0,6.0,20,0.00,,,0.00,Weather View 32 v70,2013-09-06 22:00:00,
2013-09-06 18:15:00,76.6,32.5,0.00,North,353,0.0,6.0,20,0.00,,,0.00,Weather View 32 v70,2013-09-06 22:15:00,
2013-09-06 18:30:00,75.0,32.3,0.00,NNW,339,0.0,6.0,21,0.00,,,0.00,Weather View 32 v70,2013-09-06 22:30:00,
2013-09-06 18:44:00,71.1,30.2,0.00,North,4,2.0,4.0,22,0.00,,,0.00,Weather View 32 v70,2013-09-06 22:44:00,
2013-09-06 18:59:00,68.5,29.2,0.00,NNE,18,0.0,4.0,23,0.00,,,0.00,Weather View 32 v70,2013-09-06 22:59:00,
2013-09-06 19:14:00,66.6,33.2,0.00,NNE,18,0.0,4.0,29,0.00,,,0.00,Weather View 32 v70,2013-09-06 23:14:00,
2013-09-06 19:29:00,64.8,31.7,0.00,NNE,18,0.0,4.0,29,0.00,,,0.00,Weather View 32 v70,2013-09-06 23:29:00,
2013-09-06 19:45:00,63.9,30.9,0.00,NNE,18,0.0,3.0,29,0.00,,,0.00,Weather View 32 v70,2013-09-06 23:45:00,
2013-09-06 20:00:00,62.8,33.2,0.00,NNE,18,0.0,0.0,33,0.00,,,0.00,Weather View 32 v70,2013-09-07 00:00:00,
2013-09-06 20:15:00,62.1,34.0,0.00,NNE,18,0.0,0.0,35,0.00,,,0.00,Weather View 32 v70,2013-09-07 00:15:00,
2013-09-06 20:30:00,61.3,34.1,0.00,NNE,18,0.0,0.0,36,0.00,,,0.00,Weather View 32 v70,2013-09-07 00:30:00,
2013-09-06 20:35:00,61.3,34.1,0.00,NNE,18,0.0,0.0,36,0.00,,,0.00,Weather View 32 v70,2013-09-07 00:35:00,
2013-09-06 20:45:00,61.0,35.1,0.00,NNE,18,0.0,0.0,38,0.00,,,0.00,Weather View 32 v70,2013-09-07 00:45:00,
2013-09-06 21:00:00,60.4,35.3,0.00,NNE,18,0.0,0.0,39,0.00,,,0.00,Weather View 32 v70,2013-09-07 01:00:00,
2013-09-06 21:15:00,59.5,36.4,0.00,NNE,18,0.0,0.0,42,0.00,,,0.00,Weather View 32 v70,2013-09-07 01:15:00,
2013-09-06 21:30:00,59.0,37.6,0.00,NNE,18,0.0,0.0,45,0.00,,,0.00,Weather View 32 v70,2013-09-07 01:30:00,
2013-09-06 21:36:00,59.0,37.6,0.00,NNE,18,0.0,0.0,45,0.00,,,0.00,Weather View 32 v70,2013-09-07 01:36:00,
2013-09-06 21:45:00,58.1,37.4,0.00,NNE,18,0.0,0.0,46,0.00,,,0.00,Weather View 32 v70,2013-09-07 01:45:00,
2013-09-06 22:00:00,57.7,36.5,0.00,NNE,18,0.0,0.0,45,0.00,,,0.00,Weather View 32 v70,2013-09-07 02:00:00,
2013-09-06 22:15:00,57.4,36.7,0.00,NNE,18,0.0,0.0,46,0.00,,,0.00,Weather View 32 v70,2013-09-07 02:15:00,
2013-09-06 22:30:00,57.2,37.1,0.00,NNE,18,0.0,0.0,47,0.00,,,0.00,Weather View 32 v70,2013-09-07 02:30:00,
2013-09-06 22:36:00,57.2,37.1,0.00,NNE,18,0.0,0.0,47,0.00,,,0.00,Weather View 32 v70,2013-09-07 02:36:00,
2013-09-06 22:45:00,56.8,37.8,0.00,NNE,18,0.0,0.0,49,0.00,,,0.00,Weather View 32 v70,2013-09-07 02:45:00,
2013-09-06 23:00:00,56.1,37.2,0.00,NNE,18,0.0,0.0,49,0.00,,,0.00,Weather View 32 v70,2013-09-07 03:00:00,
2013-09-06 23:15:00,55.4,38.0,0.00,NNE,18,0.0,0.0,52,0.00,,,0.00,Weather View 32 v70,2013-09-07 03:15:00,
2013-09-06 23:30:00,55.9,38.5,0.00,NNE,18,0.0,0.0,52,0.00,,,0.00,Weather View 32 v70,2013-09-07 03:30:00,
2013-09-06 23:37:00,55.9,38.5,0.00,NNE,18,0.0,0.0,52,0.00,,,0.00,Weather View 32 v70,2013-09-07 03:37:00,
2013-09-06 23:45:00,55.8,38.4,0.00,NNE,18,0.0,0.0,52,0.00,,,0.00,Weather View 32 v70,2013-09-07 03:45:00,